DLH5YU EDDN-EDDF
Flight info
| Callsign | DLH5YU |
|---|---|
| Flight time | 0h 24m |
| Altitude | 20000 |
| Route | SUKAD1G/28 SUKAD DCT PIWAW T159 SPESA SPESA5B |
| Aircraft | A320/M-SDE3FGHIRWY/LB1 |
Departure
| Time | 2026-05-04 12:31 |
|---|---|
| Airport | Nuremberg Airport (EDDN) |
Arrival
| Time | 2026-05-04 12:55 |
|---|---|
| Airport | Frankfurt Main Airport (EDDF) |
| Time | Latitude | Longitude | Altitude | Speed | Heading |
|---|---|---|---|---|---|
| 2026-05-04 12:06 | 49.49527 | 11.07725 | 1022 ft | 0 kts | 188° |
| 2026-05-04 12:07 | 49.49521 | 11.07724 | 1026 ft | 0 kts | 188° |
| 2026-05-04 12:20 | 49.49523 | 11.07724 | 1026 ft | 2 kts | 188° |
| 2026-05-04 12:20 | 49.49548 | 11.07730 | 1026 ft | 4 kts | 189° |
| 2026-05-04 12:20 | 49.49569 | 11.07734 | 1026 ft | 4 kts | 170° |
| 2026-05-04 12:20 | 49.49588 | 11.07717 | 1026 ft | 4 kts | 112° |
| 2026-05-04 12:21 | 49.49592 | 11.07697 | 1026 ft | 0 kts | 98° |
| 2026-05-04 12:23 | 49.49591 | 11.07708 | 1027 ft | 5 kts | 98° |
| 2026-05-04 12:23 | 49.49582 | 11.07807 | 1027 ft | 13 kts | 98° |
| 2026-05-04 12:23 | 49.49565 | 11.07977 | 1027 ft | 18 kts | 99° |
| 2026-05-04 12:24 | 49.49545 | 11.08178 | 1024 ft | 20 kts | 98° |
| 2026-05-04 12:24 | 49.49555 | 11.08345 | 1030 ft | 12 kts | 34° |
| 2026-05-04 12:24 | 49.49613 | 11.08401 | 1033 ft | 11 kts | 69° |
| 2026-05-04 12:24 | 49.49602 | 11.08571 | 1036 ft | 19 kts | 99° |
| 2026-05-04 12:25 | 49.49581 | 11.08782 | 1037 ft | 23 kts | 98° |
| 2026-05-04 12:25 | 49.49555 | 11.09046 | 1040 ft | 25 kts | 98° |
| 2026-05-04 12:25 | 49.49530 | 11.09306 | 1045 ft | 20 kts | 95° |
| 2026-05-04 12:25 | 49.49578 | 11.09460 | 1048 ft | 13 kts | 53° |
| 2026-05-04 12:26 | 49.49601 | 11.09508 | 1050 ft | 0 kts | 53° |
| 2026-05-04 12:28 | 49.49618 | 11.09541 | 1051 ft | 10 kts | 49° |
| 2026-05-04 12:28 | 49.49679 | 11.09573 | 1053 ft | 8 kts | 355° |
| 2026-05-04 12:28 | 49.49699 | 11.09527 | 1052 ft | 1 kts | 277° |
| 2026-05-04 12:28 | 49.49699 | 11.09526 | 1052 ft | 0 kts | 277° |
| 2026-05-04 12:30 | 49.49708 | 11.09440 | 1051 ft | 37 kts | 278° |
| 2026-05-04 12:30 | 49.49787 | 11.08641 | 1039 ft | 110 kts | 278° |
| 2026-05-04 12:31 | 49.49932 | 11.07172 | 1035 ft | 164 kts | 278° |
| 2026-05-04 12:31 | 49.50106 | 11.05428 | 1645 ft | 165 kts | 279° |
| 2026-05-04 12:31 | 49.50284 | 11.03683 | 2351 ft | 168 kts | 279° |
| 2026-05-04 12:31 | 49.50471 | 11.01786 | 2688 ft | 190 kts | 278° |
| 2026-05-04 12:32 | 49.50678 | 10.99660 | 3051 ft | 213 kts | 278° |
| 2026-05-04 12:32 | 49.51163 | 10.94671 | 4043 ft | 256 kts | 278° |
| 2026-05-04 12:32 | 49.51430 | 10.91910 | 4858 ft | 264 kts | 278° |
| 2026-05-04 12:33 | 49.51705 | 10.89098 | 5747 ft | 268 kts | 277° |
| 2026-05-04 12:33 | 49.51977 | 10.86248 | 6683 ft | 270 kts | 277° |
| 2026-05-04 12:33 | 49.52248 | 10.83372 | 7576 ft | 273 kts | 276° |
| 2026-05-04 12:33 | 49.52522 | 10.80464 | 8446 ft | 277 kts | 276° |
| 2026-05-04 12:34 | 49.52802 | 10.77514 | 9299 ft | 281 kts | 275° |
| 2026-05-04 12:34 | 49.53086 | 10.74512 | 10127 ft | 286 kts | 275° |
| 2026-05-04 12:34 | 49.53380 | 10.71378 | 10481 ft | 308 kts | 275° |
| 2026-05-04 12:34 | 49.53695 | 10.67989 | 10743 ft | 331 kts | 275° |
| 2026-05-04 12:35 | 49.54030 | 10.64429 | 11322 ft | 340 kts | 275° |
| 2026-05-04 12:35 | 49.54375 | 10.60799 | 12058 ft | 345 kts | 276° |
| 2026-05-04 12:35 | 49.54730 | 10.57132 | 12817 ft | 349 kts | 278° |
| 2026-05-04 12:35 | 49.55401 | 10.53505 | 13556 ft | 356 kts | 289° |
| 2026-05-04 12:36 | 49.56564 | 10.50101 | 14231 ft | 363 kts | 301° |
| 2026-05-04 12:36 | 49.58026 | 10.46961 | 14871 ft | 367 kts | 303° |
| 2026-05-04 12:36 | 49.59526 | 10.43759 | 15545 ft | 370 kts | 303° |
| 2026-05-04 12:36 | 49.61029 | 10.40528 | 16212 ft | 372 kts | 302° |
| 2026-05-04 12:37 | 49.62538 | 10.37267 | 16880 ft | 375 kts | 302° |
| 2026-05-04 12:37 | 49.64034 | 10.33938 | 17509 ft | 379 kts | 300° |
| 2026-05-04 12:37 | 49.65459 | 10.30501 | 17941 ft | 382 kts | 298° |
| 2026-05-04 12:37 | 49.66864 | 10.26911 | 18055 ft | 389 kts | 297° |
| 2026-05-04 12:38 | 49.68241 | 10.23293 | 18328 ft | 393 kts | 297° |
| 2026-05-04 12:38 | 49.69609 | 10.19680 | 18567 ft | 395 kts | 297° |
| 2026-05-04 12:38 | 49.71008 | 10.16018 | 18790 ft | 397 kts | 297° |
| 2026-05-04 12:38 | 49.72426 | 10.12348 | 18952 ft | 398 kts | 297° |
| 2026-05-04 12:39 | 49.73852 | 10.08686 | 18995 ft | 398 kts | 298° |
| 2026-05-04 12:39 | 49.75286 | 10.05015 | 19000 ft | 398 kts | 298° |
| 2026-05-04 12:39 | 49.76717 | 10.01356 | 19004 ft | 397 kts | 298° |
| 2026-05-04 12:39 | 49.78122 | 9.97762 | 18946 ft | 383 kts | 298° |
| 2026-05-04 12:40 | 49.79484 | 9.94272 | 18668 ft | 374 kts | 298° |
| 2026-05-04 12:40 | 49.80820 | 9.90837 | 18252 ft | 371 kts | 298° |
| 2026-05-04 12:40 | 49.82140 | 9.87434 | 17748 ft | 368 kts | 298° |
| 2026-05-04 12:40 | 49.83456 | 9.84033 | 17096 ft | 369 kts | 298° |
| 2026-05-04 12:41 | 49.84779 | 9.80598 | 16360 ft | 374 kts | 298° |
| 2026-05-04 12:41 | 49.86114 | 9.77125 | 15750 ft | 375 kts | 298° |
| 2026-05-04 12:41 | 49.87445 | 9.73663 | 15217 ft | 373 kts | 298° |
| 2026-05-04 12:41 | 49.88769 | 9.70224 | 14717 ft | 371 kts | 298° |
| 2026-05-04 12:42 | 49.90090 | 9.66792 | 14229 ft | 369 kts | 298° |
| 2026-05-04 12:42 | 49.91395 | 9.63398 | 13886 ft | 362 kts | 298° |
| 2026-05-04 12:42 | 49.92658 | 9.60107 | 13761 ft | 344 kts | 298° |
| 2026-05-04 12:42 | 49.93835 | 9.57034 | 13627 ft | 320 kts | 298° |
| 2026-05-04 12:43 | 49.94943 | 9.54133 | 13229 ft | 307 kts | 298° |
| 2026-05-04 12:43 | 49.96019 | 9.51307 | 12629 ft | 302 kts | 298° |
| 2026-05-04 12:43 | 49.97080 | 9.48515 | 11988 ft | 299 kts | 298° |
| 2026-05-04 12:43 | 49.98138 | 9.45727 | 11619 ft | 299 kts | 297° |
| 2026-05-04 12:44 | 49.99191 | 9.42961 | 11271 ft | 296 kts | 297° |
| 2026-05-04 12:44 | 50.00236 | 9.40217 | 10915 ft | 295 kts | 297° |
| 2026-05-04 12:44 | 50.01265 | 9.37508 | 10740 ft | 286 kts | 297° |
| 2026-05-04 12:44 | 50.02258 | 9.34884 | 10618 ft | 277 kts | 297° |
| 2026-05-04 12:45 | 50.03216 | 9.32354 | 10473 ft | 264 kts | 297° |
| 2026-05-04 12:45 | 50.04134 | 9.29934 | 10080 ft | 258 kts | 297° |
| 2026-05-04 12:45 | 50.05040 | 9.27544 | 9583 ft | 255 kts | 297° |
| 2026-05-04 12:45 | 50.05932 | 9.25184 | 9077 ft | 251 kts | 297° |
| 2026-05-04 12:46 | 50.06810 | 9.22862 | 8544 ft | 248 kts | 297° |
| 2026-05-04 12:46 | 50.07681 | 9.20551 | 8096 ft | 247 kts | 297° |
| 2026-05-04 12:46 | 50.08543 | 9.18258 | 7758 ft | 245 kts | 297° |
| 2026-05-04 12:46 | 50.09396 | 9.15983 | 7448 ft | 242 kts | 297° |
| 2026-05-04 12:47 | 50.10246 | 9.13726 | 7139 ft | 240 kts | 299° |
| 2026-05-04 12:47 | 50.11398 | 9.11861 | 6835 ft | 243 kts | 326° |
| 2026-05-04 12:47 | 50.12914 | 9.10673 | 6580 ft | 244 kts | 332° |
| 2026-05-04 12:47 | 50.14264 | 9.09172 | 6365 ft | 236 kts | 306° |
| 2026-05-04 12:48 | 50.14940 | 9.06917 | 6049 ft | 229 kts | 276° |
| 2026-05-04 12:48 | 50.14814 | 9.04501 | 5710 ft | 225 kts | 250° |
| 2026-05-04 12:48 | 50.14281 | 9.02212 | 5342 ft | 225 kts | 249° |
| 2026-05-04 12:48 | 50.13740 | 8.99924 | 5049 ft | 223 kts | 250° |
| 2026-05-04 12:49 | 50.13220 | 8.97706 | 4989 ft | 211 kts | 249° |
| 2026-05-04 12:49 | 50.12735 | 8.95633 | 4988 ft | 196 kts | 250° |
| 2026-05-04 12:49 | 50.12282 | 8.93701 | 4934 ft | 186 kts | 250° |
| 2026-05-04 12:49 | 50.11841 | 8.91819 | 4750 ft | 184 kts | 250° |
| 2026-05-04 12:50 | 50.11403 | 8.89951 | 4524 ft | 184 kts | 250° |
| 2026-05-04 12:50 | 50.10963 | 8.88080 | 4270 ft | 184 kts | 249° |
| 2026-05-04 12:50 | 50.10527 | 8.86222 | 4068 ft | 181 kts | 250° |
| 2026-05-04 12:50 | 50.10095 | 8.84387 | 3809 ft | 180 kts | 249° |
| 2026-05-04 12:51 | 50.09671 | 8.82585 | 3555 ft | 174 kts | 249° |
| 2026-05-04 12:51 | 50.09259 | 8.80836 | 3332 ft | 171 kts | 249° |
| 2026-05-04 12:51 | 50.08851 | 8.79107 | 3101 ft | 169 kts | 249° |
| 2026-05-04 12:51 | 50.08448 | 8.77399 | 2873 ft | 168 kts | 248° |
| 2026-05-04 12:52 | 50.08044 | 8.75689 | 2654 ft | 167 kts | 248° |
| 2026-05-04 12:52 | 50.07641 | 8.73987 | 2429 ft | 168 kts | 249° |
| 2026-05-04 12:52 | 50.07239 | 8.72285 | 2202 ft | 167 kts | 248° |
| 2026-05-04 12:52 | 50.06840 | 8.70600 | 1986 ft | 164 kts | 248° |
| 2026-05-04 12:53 | 50.06459 | 8.68992 | 1766 ft | 153 kts | 248° |
| 2026-05-04 12:53 | 50.06108 | 8.67507 | 1591 ft | 138 kts | 248° |
| 2026-05-04 12:53 | 50.05786 | 8.66150 | 1406 ft | 133 kts | 249° |
| 2026-05-04 12:53 | 50.05462 | 8.64778 | 1232 ft | 137 kts | 248° |
| 2026-05-04 12:54 | 50.05128 | 8.63379 | 1049 ft | 138 kts | 250° |
| 2026-05-04 12:54 | 50.04798 | 8.61983 | 852 ft | 137 kts | 250° |
| 2026-05-04 12:54 | 50.04466 | 8.60593 | 670 ft | 137 kts | 250° |
| 2026-05-04 12:54 | 50.04147 | 8.59240 | 501 ft | 130 kts | 249° |
| 2026-05-04 12:55 | 50.03834 | 8.57933 | 368 ft | 124 kts | 249° |
| 2026-05-04 12:55 | 50.03583 | 8.56885 | 354 ft | 80 kts | 249° |
| 2026-05-04 12:55 | 50.03447 | 8.56299 | 359 ft | 40 kts | 256° |
| 2026-05-04 12:55 | 50.03449 | 8.55950 | 355 ft | 30 kts | 280° |
| 2026-05-04 12:56 | 50.03485 | 8.55717 | 348 ft | 14 kts | 311° |
| 2026-05-04 12:56 | 50.03553 | 8.55732 | 347 ft | 9 kts | 53° |
| 2026-05-04 12:56 | 50.03581 | 8.55844 | 355 ft | 15 kts | 70° |
| 2026-05-04 12:56 | 50.03628 | 8.56043 | 357 ft | 23 kts | 70° |
| 2026-05-04 12:57 | 50.03684 | 8.56276 | 358 ft | 24 kts | 69° |
| 2026-05-04 12:57 | 50.03750 | 8.56554 | 355 ft | 30 kts | 70° |
| 2026-05-04 12:57 | 50.03824 | 8.56862 | 359 ft | 31 kts | 69° |
| 2026-05-04 12:57 | 50.03899 | 8.57177 | 364 ft | 31 kts | 70° |
| 2026-05-04 12:58 | 50.03973 | 8.57484 | 366 ft | 30 kts | 69° |
| 2026-05-04 12:58 | 50.04047 | 8.57797 | 368 ft | 31 kts | 69° |
| 2026-05-04 12:58 | 50.04125 | 8.58119 | 368 ft | 32 kts | 70° |
| 2026-05-04 12:58 | 50.04202 | 8.58440 | 370 ft | 32 kts | 69° |
| 2026-05-04 12:59 | 50.04279 | 8.58761 | 371 ft | 31 kts | 69° |
| 2026-05-04 12:59 | 50.04353 | 8.59066 | 377 ft | 30 kts | 69° |
| 2026-05-04 12:59 | 50.04426 | 8.59372 | 376 ft | 27 kts | 68° |
| 2026-05-04 12:59 | 50.04532 | 8.59469 | 374 ft | 20 kts | 359° |
| 2026-05-04 13:00 | 50.04676 | 8.59453 | 372 ft | 22 kts | 345° |
| 2026-05-04 13:00 | 50.04806 | 8.59383 | 371 ft | 10 kts | 339° |
| 2026-05-04 13:00 | 50.04834 | 8.59366 | 370 ft | 5 kts | 339° |
| 2026-05-04 13:00 | 50.04877 | 8.59358 | 368 ft | 8 kts | 12° |
| 2026-05-04 13:01 | 50.04946 | 8.59367 | 366 ft | 13 kts | 345° |
| 2026-05-04 13:01 | 50.05046 | 8.59308 | 366 ft | 18 kts | 336° |
| 2026-05-04 13:01 | 50.05063 | 8.59141 | 361 ft | 18 kts | 250° |
| 2026-05-04 13:01 | 50.05019 | 8.58956 | 359 ft | 19 kts | 249° |
| 2026-05-04 13:02 | 50.04980 | 8.58834 | 362 ft | 7 kts | 199° |
| 2026-05-04 13:02 | 50.04939 | 8.58850 | 364 ft | 6 kts | 159° |
| 2026-05-04 13:02 | 50.04914 | 8.58864 | 366 ft | 1 kts | 160° |
| 2026-05-04 13:02 | 50.04910 | 8.58866 | 365 ft | 0 kts | 160° |